createdAt,value
2023-02-24T00:01:52.840Z,100244.37
2023-02-24T00:04:52.650Z,100239.63
2023-02-24T00:07:52.662Z,100246.22
2023-02-24T00:10:52.691Z,100235.59
2023-02-24T00:13:53.699Z,100236.38
2023-02-24T00:16:53.829Z,100219.91
2023-02-24T00:19:53.697Z,100224.03
2023-02-24T00:22:53.671Z,100224.63
2023-02-24T00:25:53.704Z,100206.19
2023-02-24T00:28:53.699Z,100221.31
2023-02-24T00:31:53.787Z,100202.44
2023-02-24T00:34:54.658Z,100184.56
2023-02-24T00:38:00.684Z,100209.69
2023-02-24T00:41:01.698Z,100210.31
2023-02-24T00:44:02.686Z,100205.84
2023-02-24T00:47:02.661Z,100209.97
2023-02-24T00:50:02.687Z,100201.16
2023-02-24T00:53:02.695Z,100180.97
2023-02-24T00:56:02.664Z,100194.28
2023-02-24T00:59:02.712Z,100203.31
2023-02-24T01:02:02.679Z,100208.97
2023-02-24T01:05:02.713Z,100200.00
2023-02-24T01:08:02.710Z,100199.63
2023-02-24T01:11:30.681Z,100192.81
2023-02-24T01:14:32.699Z,100185.31
2023-02-24T01:17:33.723Z,100158.06
2023-02-24T01:20:36.677Z,100177.16
2023-02-24T01:23:36.676Z,100178.22
2023-02-24T01:26:37.694Z,100176.41
2023-02-24T01:29:37.636Z,100177.25
2023-02-24T01:32:38.789Z,100179.03
2023-02-24T01:35:38.685Z,100174.00
2023-02-24T01:38:38.709Z,100173.25
2023-02-24T01:41:39.678Z,100157.78
2023-02-24T01:44:39.702Z,100169.06
2023-02-24T01:47:39.654Z,100171.94
2023-02-24T01:50:40.709Z,100161.44
2023-02-24T01:53:41.707Z,100162.97
2023-02-24T01:56:42.725Z,100155.94
2023-02-24T01:59:43.802Z,100154.41
2023-02-24T02:02:43.720Z,100135.78
2023-02-24T02:05:43.695Z,100147.88
2023-02-24T02:08:43.697Z,100144.19
2023-02-24T02:11:43.694Z,100136.13
2023-02-24T02:14:44.709Z,100132.16
2023-02-24T02:17:57.669Z,100142.75
2023-02-24T02:21:02.667Z,100145.47
2023-02-24T02:24:34.707Z,100138.28
2023-02-24T02:28:11.675Z,100146.91
2023-02-24T02:31:48.834Z,100155.44
2023-02-24T02:34:51.662Z,100149.50
2023-02-24T02:38:04.664Z,100150.72
2023-02-24T02:41:14.705Z,100149.06
2023-02-24T02:44:38.660Z,100135.78
2023-02-24T02:47:46.644Z,100141.66
2023-02-24T02:51:01.655Z,100139.88
2023-02-24T02:54:11.677Z,100118.94
2023-02-24T02:57:16.674Z,100132.88
2023-02-24T03:00:35.681Z,100133.78
2023-02-24T03:03:35.657Z,100137.28
2023-02-24T03:06:44.668Z,100131.09
2023-02-24T03:09:46.697Z,100133.62
2023-02-24T03:12:47.689Z,100127.59
2023-02-24T03:15:42.470Z,100121.56
2023-02-24T03:18:45.687Z,100118.22
2023-02-24T03:21:54.712Z,100111.69
2023-02-24T03:24:55.672Z,100127.84
2023-02-24T03:28:01.767Z,100124.25
2023-02-24T03:31:07.695Z,100122.41
2023-02-24T03:34:19.667Z,100128.19
2023-02-24T03:37:19.635Z,100106.41
2023-02-24T03:40:25.708Z,100118.41
2023-02-24T03:43:35.691Z,100106.34
2023-02-24T03:46:36.644Z,100100.00
2023-02-24T03:49:36.656Z,100101.06
2023-02-24T03:52:45.659Z,100065.62
2023-02-24T03:56:22.700Z,100100.22
2023-02-24T03:59:40.689Z,100094.06
2023-02-24T04:02:43.726Z,100089.78
2023-02-24T04:05:44.647Z,100085.59
2023-02-24T04:08:52.659Z,100081.91
2023-02-24T04:12:06.674Z,100078.56
2023-02-24T04:15:15.659Z,100069.91
2023-02-24T04:18:22.657Z,100073.47
2023-02-24T04:21:23.667Z,100073.63
2023-02-24T04:24:24.701Z,100073.53
2023-02-24T04:27:25.651Z,100071.03
2023-02-24T04:30:26.693Z,100070.25
2023-02-24T04:33:26.706Z,100058.25
2023-02-24T04:36:26.644Z,100034.00
2023-02-24T04:39:26.647Z,100045.72
2023-02-24T04:42:29.701Z,100040.69
2023-02-24T04:45:34.698Z,100032.22
2023-02-24T04:48:34.673Z,100007.16
2023-02-24T04:51:38.665Z,100015.72
2023-02-24T04:54:39.687Z,100045.03
2023-02-24T04:57:43.617Z,100045.13
2023-02-24T05:00:43.661Z,100050.56
2023-02-24T05:03:43.754Z,100035.16
2023-02-24T05:06:47.701Z,100037.97
2023-02-24T05:09:47.690Z,100026.09
2023-02-24T05:12:47.677Z,100025.31
2023-02-24T05:15:47.652Z,100019.31
2023-02-24T05:18:47.711Z,100014.03
2023-02-24T05:21:48.656Z,100020.06
2023-02-24T05:24:48.671Z,100022.56
2023-02-24T05:27:48.665Z,100016.37
2023-02-24T05:30:48.686Z,100011.13
2023-02-24T05:33:52.698Z,100011.03
2023-02-24T05:36:53.668Z,100011.69
2023-02-24T05:39:53.678Z,100004.66
2023-02-24T05:42:54.658Z,100016.56
2023-02-24T05:45:54.694Z,100014.13
2023-02-24T05:48:54.643Z,99996.97
2023-02-24T05:52:00.658Z,100013.81
2023-02-24T05:55:00.710Z,100006.87
2023-02-24T05:58:00.720Z,100013.06
2023-02-24T06:01:00.687Z,100014.31
2023-02-24T06:04:00.649Z,100007.69
2023-02-24T06:07:02.690Z,100003.50
2023-02-24T06:10:04.737Z,100007.00
2023-02-24T06:13:04.690Z,100003.66
2023-02-24T06:16:08.703Z,100015.72
2023-02-24T06:19:08.675Z,99975.31
2023-02-24T06:22:08.638Z,100011.44
2023-02-24T06:25:08.689Z,99991.75
2023-02-24T06:28:08.629Z,100009.53
2023-02-24T06:31:08.688Z,100007.69
2023-02-24T06:34:08.683Z,100008.53
2023-02-24T06:37:09.775Z,100000.81
2023-02-24T06:40:10.660Z,99997.31
2023-02-24T06:43:10.704Z,100005.25
2023-02-24T06:46:10.731Z,100007.00
2023-02-24T06:49:10.661Z,99994.97
2023-02-24T06:52:10.643Z,100000.16
2023-02-24T06:55:13.767Z,99996.62
2023-02-24T06:58:14.658Z,99986.06
2023-02-24T07:01:18.843Z,99986.66
2023-02-24T07:04:18.723Z,99983.75
2023-02-24T07:07:20.669Z,99983.75
2023-02-24T07:10:21.704Z,99987.69
2023-02-24T07:13:22.644Z,99954.78
2023-02-24T07:16:22.673Z,99984.09
2023-02-24T07:19:26.684Z,99971.19
2023-02-24T07:22:31.699Z,99956.88
2023-02-24T07:25:39.637Z,99972.72
2023-02-24T07:28:40.697Z,99978.59
2023-02-24T07:31:40.825Z,99956.41
2023-02-24T07:34:40.958Z,99963.06
2023-02-24T07:37:41.651Z,99953.63
2023-02-24T07:40:42.670Z,99960.47
2023-02-24T07:43:42.700Z,99947.59
2023-02-24T07:46:42.661Z,99951.62
2023-02-24T07:49:42.657Z,99942.72
2023-02-24T07:52:42.642Z,99919.06
2023-02-24T07:55:42.691Z,99925.31
2023-02-24T07:58:42.677Z,99916.94
2023-02-24T08:01:46.693Z,99923.72
2023-02-24T08:04:47.640Z,99910.25
2023-02-24T08:07:47.650Z,99910.72
2023-02-24T08:10:47.648Z,99910.81
2023-02-24T08:13:47.693Z,99878.59
2023-02-24T08:16:47.602Z,99903.53
2023-02-24T08:19:48.648Z,99904.63
2023-02-24T08:22:50.686Z,99905.81
2023-02-24T08:25:50.674Z,99895.81
2023-02-24T08:28:50.641Z,99896.47
2023-02-24T08:31:50.766Z,99864.50
2023-02-24T08:34:51.647Z,99902.81
2023-02-24T08:37:53.639Z,99872.91
2023-02-24T08:40:57.652Z,99890.78
2023-02-24T08:43:57.677Z,99880.44
2023-02-24T08:46:57.798Z,99863.31
2023-02-24T08:50:00.637Z,99862.44
2023-02-24T08:53:00.657Z,99869.88
2023-02-24T08:56:00.661Z,99874.72
2023-02-24T08:59:03.643Z,99869.88
2023-02-24T09:02:23.659Z,99870.44
2023-02-24T09:05:23.655Z,99868.50
2023-02-24T09:08:23.653Z,99874.28
2023-02-24T09:11:32.658Z,99865.25
2023-02-24T09:14:33.690Z,99857.34
2023-02-24T09:17:56.688Z,99855.50
2023-02-24T09:21:14.662Z,99828.75
2023-02-24T09:24:17.005Z,99846.09
2023-02-24T09:27:16.652Z,99835.84
2023-02-24T09:30:32.722Z,99838.91
2023-02-24T09:33:45.716Z,99830.59
2023-02-24T09:36:45.168Z,99834.72
2023-02-24T09:40:04.690Z,99836.59
2023-02-24T09:43:04.633Z,99836.59
2023-02-24T09:46:05.761Z,99836.50
2023-02-24T09:49:11.669Z,99830.97
2023-02-24T09:52:15.660Z,99807.16
2023-02-24T09:55:33.667Z,99830.25
2023-02-24T09:58:57.682Z,99817.34
2023-02-24T10:02:16.662Z,99830.25
2023-02-24T10:05:44.704Z,99813.69
2023-02-24T10:08:52.712Z,99810.03
2023-02-24T10:12:00.694Z,99800.34
2023-02-24T10:15:26.632Z,99804.50
2023-02-24T10:19:18.664Z,99806.31
2023-02-24T10:22:34.647Z,99813.22
2023-02-24T10:26:06.815Z,99787.94
2023-02-24T10:29:17.362Z,99771.50
2023-02-24T10:32:37.709Z,99742.78
2023-02-24T10:35:39.645Z,99734.34
2023-02-24T10:38:40.693Z,99731.53
2023-02-24T10:41:44.684Z,99744.75
2023-02-24T10:44:48.606Z,99739.34
2023-02-24T10:47:41.670Z,99745.50
2023-02-24T10:50:55.934Z,99746.25
2023-02-24T10:54:15.683Z,99741.75
2023-02-24T10:57:25.689Z,99730.94
2023-02-24T11:00:58.683Z,99721.44
2023-02-24T11:04:29.688Z,99709.25
2023-02-24T11:07:31.619Z,99718.53
2023-02-24T11:10:38.691Z,99695.72
2023-02-24T11:14:13.629Z,99703.75
2023-02-24T11:17:22.679Z,99687.06
2023-02-24T11:20:54.653Z,99681.34
2023-02-24T11:24:03.648Z,99666.56
2023-02-24T11:27:05.065Z,99645.19
2023-02-24T11:30:29.747Z,99661.03
2023-02-24T11:34:01.639Z,99660.19
2023-02-24T11:37:14.042Z,99669.34
2023-02-24T11:40:25.694Z,99650.06
2023-02-24T11:43:28.694Z,99659.69
2023-02-24T11:46:31.670Z,99629.25
2023-02-24T11:49:56.680Z,99644.47
2023-02-24T11:52:57.665Z,99636.84
2023-02-24T11:55:59.691Z,99636.13
2023-02-24T11:59:15.631Z,99630.19
2023-02-24T12:02:46.737Z,99622.38
2023-02-24T12:05:50.683Z,99631.34
2023-02-24T12:08:51.671Z,99615.00
2023-02-24T12:11:58.647Z,99604.59
2023-02-24T12:15:05.705Z,99602.69
2023-02-24T12:18:16.643Z,99603.41
2023-02-24T12:21:23.158Z,99576.34
2023-02-24T12:24:27.634Z,99592.78
2023-02-24T12:27:31.659Z,99586.53
2023-02-24T12:30:55.647Z,99587.38
2023-02-24T12:34:18.647Z,99577.94
2023-02-24T12:37:55.660Z,99575.84
2023-02-24T12:41:10.631Z,99565.63
2023-02-24T12:44:27.646Z,99571.03
2023-02-24T12:47:50.787Z,99565.25
2023-02-24T12:51:16.636Z,99555.44
2023-02-24T12:54:22.669Z,99547.28
2023-02-24T12:57:32.642Z,99543.50
2023-02-24T13:00:48.671Z,99543.16
2023-02-24T13:04:12.652Z,99527.97
2023-02-24T13:07:12.666Z,99536.31
2023-02-24T13:10:18.694Z,99532.12
2023-02-24T13:13:25.689Z,99526.09
2023-02-24T13:16:25.688Z,99525.75
2023-02-24T13:19:41.671Z,99522.22
2023-02-24T13:22:45.641Z,99511.09
2023-02-24T13:25:48.658Z,99512.97
2023-02-24T13:28:50.664Z,99510.72
2023-02-24T13:31:59.689Z,99510.50
2023-02-24T13:34:59.638Z,99501.12
2023-02-24T13:38:00.617Z,99501.88
2023-02-24T13:41:00.644Z,99487.88
2023-02-24T13:44:32.637Z,99492.88
2023-02-24T13:47:38.649Z,99497.09
2023-02-24T13:50:48.665Z,99502.31
2023-02-24T13:54:06.685Z,99495.78
2023-02-24T13:57:30.637Z,99485.59
2023-02-24T14:00:52.725Z,99484.06
2023-02-24T14:03:53.634Z,99484.25
2023-02-24T14:06:53.769Z,99478.06
2023-02-24T14:09:57.636Z,99477.50
2023-02-24T14:12:57.653Z,99461.94
2023-02-24T14:15:58.650Z,99469.47
2023-02-24T14:19:08.691Z,99465.81
2023-02-24T14:22:13.081Z,99453.63
2023-02-24T14:25:19.634Z,99452.41
2023-02-24T14:28:20.689Z,99427.84
2023-02-24T14:31:25.787Z,99440.31
2023-02-24T14:34:30.716Z,99428.03
2023-02-24T14:37:30.637Z,99434.25
2023-02-24T14:40:31.683Z,99432.78
2023-02-24T14:43:31.648Z,99428.50
2023-02-24T14:46:31.739Z,99425.28
2023-02-24T14:49:36.657Z,99417.19
2023-02-24T14:52:42.698Z,99413.87
2023-02-24T14:55:53.675Z,99415.41
2023-02-24T14:59:13.688Z,99391.00
2023-02-24T15:02:13.633Z,99401.75
2023-02-24T15:05:13.648Z,99400.91
2023-02-24T15:08:15.671Z,99391.34
2023-02-24T15:11:35.647Z,99396.59
2023-02-24T15:14:42.676Z,99398.06
2023-02-24T15:17:42.655Z,99378.91
2023-02-24T15:20:51.660Z,99388.03
2023-02-24T15:23:52.646Z,99387.34
2023-02-24T15:26:52.616Z,99381.53
2023-02-24T15:29:52.650Z,99384.66
2023-02-24T15:32:52.719Z,99381.31
2023-02-24T15:36:04.644Z,99367.81
2023-02-24T15:39:07.669Z,99364.41
2023-02-24T15:42:40.625Z,99370.22
2023-02-24T15:45:48.674Z,99360.00
2023-02-24T15:48:48.854Z,99364.66
2023-02-24T15:51:51.656Z,99355.53
2023-02-24T15:54:52.659Z,99332.44
2023-02-24T15:57:52.658Z,99345.84
2023-02-24T16:00:52.762Z,99341.97
2023-02-24T16:03:52.704Z,99337.91
2023-02-24T16:07:00.667Z,99334.72
2023-02-24T16:10:00.677Z,99339.63
2023-02-24T16:13:18.661Z,99344.94
2023-02-24T16:16:21.045Z,99340.94
2023-02-24T16:19:21.657Z,99329.91
2023-02-24T16:22:23.652Z,99320.34
2023-02-24T16:25:27.648Z,99327.91
2023-02-24T16:28:29.685Z,99311.19
2023-02-24T16:31:29.788Z,99319.00
2023-02-24T16:34:29.626Z,99322.47
2023-02-24T16:37:38.623Z,99319.84
2023-02-24T16:40:44.628Z,99307.84
2023-02-24T16:43:44.630Z,99312.25
2023-02-24T16:46:48.674Z,99311.88
2023-02-24T16:49:48.674Z,99305.81
2023-02-24T16:52:48.633Z,99303.47
2023-02-24T16:55:48.680Z,99305.88
2023-02-24T16:58:48.673Z,99301.50
2023-02-24T17:01:48.678Z,99304.81
2023-02-24T17:04:48.636Z,99298.19
2023-02-24T17:07:48.629Z,99291.56
2023-02-24T17:10:49.668Z,99297.16
2023-02-24T17:13:50.667Z,99279.81
2023-02-24T17:16:50.702Z,99293.31
2023-02-24T17:19:50.668Z,99285.97
2023-02-24T17:22:50.659Z,99281.59
2023-02-24T17:25:50.646Z,99281.34
2023-02-24T17:28:50.651Z,99262.28
2023-02-24T17:31:50.882Z,99267.03
2023-02-24T17:34:50.651Z,99273.91
2023-02-24T17:37:50.659Z,99270.69
2023-02-24T17:40:50.686Z,99249.25
2023-02-24T17:43:50.676Z,99264.53
2023-02-24T17:46:51.757Z,99263.94
2023-02-24T17:49:51.667Z,99261.69
2023-02-24T17:52:51.625Z,99255.06
2023-02-24T17:56:01.860Z,99243.69
2023-02-24T17:59:05.630Z,99249.00
2023-02-24T18:02:06.700Z,99234.53
2023-02-24T18:05:07.613Z,99225.28
2023-02-24T18:08:07.642Z,99229.91
2023-02-24T18:11:07.625Z,99222.06
2023-02-24T18:14:07.633Z,99221.25
2023-02-24T18:17:07.678Z,99215.31
2023-02-24T18:20:07.677Z,99208.81
2023-02-24T18:23:07.630Z,99201.81
2023-02-24T18:26:07.678Z,99200.41
2023-02-24T18:29:07.648Z,99192.59
2023-02-24T18:32:07.772Z,99175.75
2023-02-24T18:35:07.626Z,99184.25
2023-02-24T18:38:07.650Z,99188.31
2023-02-24T18:41:12.653Z,99177.37
2023-02-24T18:44:12.680Z,99178.91
2023-02-24T18:47:15.642Z,99181.62
2023-02-24T18:50:15.627Z,99165.88
2023-02-24T18:53:15.666Z,99149.19
2023-02-24T18:56:20.883Z,99160.50
2023-02-24T18:59:20.664Z,99162.66
2023-02-24T19:02:20.637Z,99138.28
2023-02-24T19:05:20.704Z,99153.69
2023-02-24T19:08:20.644Z,99150.00
2023-02-24T19:11:25.687Z,99133.56
2023-02-24T19:14:25.636Z,99133.91
2023-02-24T19:17:25.644Z,99132.00
2023-02-24T19:20:27.637Z,99128.09
2023-02-24T19:23:27.687Z,99132.47
2023-02-24T19:26:35.687Z,99126.69
2023-02-24T19:29:35.654Z,99115.75
2023-02-24T19:32:35.730Z,99097.75
2023-02-24T19:35:35.655Z,99108.13
2023-02-24T19:38:35.657Z,99104.59
2023-02-24T19:41:35.634Z,99097.34
2023-02-24T19:44:35.679Z,99100.25
2023-02-24T19:47:35.681Z,99089.09
2023-02-24T19:50:35.678Z,99089.53
2023-02-24T19:53:35.645Z,99087.75
2023-02-24T19:56:43.667Z,99090.94
2023-02-24T19:59:36.632Z,99080.50
2023-02-24T20:02:23.654Z,99071.44
2023-02-24T20:05:23.696Z,99079.28
2023-02-24T20:08:23.675Z,99074.22
2023-02-24T20:11:24.635Z,99075.16
2023-02-24T20:14:25.609Z,99067.31
2023-02-24T20:17:25.639Z,99069.09
2023-02-24T20:20:25.636Z,99068.53
2023-02-24T20:23:25.663Z,99067.56
2023-02-24T20:26:26.632Z,99069.09
2023-02-24T20:29:27.676Z,99043.22
2023-02-24T20:32:27.785Z,99050.38
2023-02-24T20:35:21.689Z,99028.25
2023-02-24T20:38:21.649Z,99033.47
2023-02-24T20:41:21.631Z,99038.94
2023-02-24T20:44:21.667Z,99031.09
2023-02-24T20:47:21.620Z,99028.06
2023-02-24T20:50:21.733Z,99015.25
2023-02-24T20:53:21.636Z,98999.81
2023-02-24T20:56:25.725Z,98997.31
2023-02-24T20:59:31.627Z,98993.06
2023-02-24T21:02:31.677Z,98986.78
2023-02-24T21:05:34.835Z,98985.94
2023-02-24T21:08:34.653Z,98978.47
2023-02-24T21:11:34.656Z,98976.09
2023-02-24T21:14:34.653Z,98976.09
2023-02-24T21:17:34.688Z,98967.81
2023-02-24T21:20:35.663Z,98961.22
2023-02-24T21:23:35.639Z,98960.88
2023-02-24T21:26:35.617Z,98949.87
2023-02-24T21:29:35.676Z,98953.12
2023-02-24T21:32:35.758Z,98946.81
2023-02-24T21:35:35.639Z,98944.09
2023-02-24T21:38:37.635Z,98931.75
2023-02-24T21:41:37.673Z,98932.25
2023-02-24T21:44:37.665Z,98919.66
2023-02-24T21:47:37.639Z,98924.00
2023-02-24T21:50:37.667Z,98924.88
2023-02-24T21:53:39.751Z,98928.44
2023-02-24T21:56:41.668Z,98936.25
2023-02-24T21:59:41.652Z,98931.03
2023-02-24T22:02:41.634Z,98932.25
2023-02-24T22:05:41.614Z,98921.75
2023-02-24T22:08:41.644Z,98926.47
2023-02-24T22:11:44.654Z,98926.78
2023-02-24T22:14:44.629Z,98913.25
2023-02-24T22:17:44.646Z,98916.69
2023-02-24T22:20:44.633Z,98919.44
2023-02-24T22:23:44.660Z,98920.88
2023-02-24T22:26:45.682Z,98914.97
2023-02-24T22:29:45.621Z,98913.97
2023-02-24T22:32:45.665Z,98905.84
2023-02-24T22:35:49.644Z,98904.47
2023-02-24T22:38:50.661Z,98905.31
2023-02-24T22:41:50.632Z,98898.75
2023-02-24T22:44:50.614Z,98892.56
2023-02-24T22:47:50.678Z,98895.41
2023-02-24T22:50:50.633Z,98889.41
2023-02-24T22:53:53.638Z,98889.03
2023-02-24T22:56:55.209Z,98875.06
2023-02-24T22:59:55.657Z,98867.63
2023-02-24T23:02:55.660Z,98854.59
2023-02-24T23:05:55.642Z,98860.66
2023-02-24T23:08:57.682Z,98865.34
2023-02-24T23:11:57.672Z,98861.97
2023-02-24T23:14:57.675Z,98857.72
2023-02-24T23:17:57.636Z,98856.38
2023-02-24T23:20:57.662Z,98853.09
2023-02-24T23:23:57.630Z,98843.22
2023-02-24T23:27:04.629Z,98847.31
2023-02-24T23:30:04.605Z,98842.66
2023-02-24T23:33:04.658Z,98847.16
2023-02-24T23:36:04.661Z,98848.69
2023-02-24T23:39:04.634Z,98832.59
2023-02-24T23:42:04.602Z,98834.94
2023-02-24T23:45:04.670Z,98822.00
2023-02-24T23:48:05.660Z,98819.94
2023-02-24T23:51:05.634Z,98819.66
2023-02-24T23:54:05.632Z,98810.13
2023-02-24T23:57:05.604Z,98806.41
